MMUN

Cancún International Airport

Cancún, Mexico
TAF MMUN 261113Z 2612/2718 00000KT 5SM HZ BKN250 TX26/2620Z TN21/2612Z FM261500 13012KT P6SM BKN015 BKN080 TEMPO 2621/2701 5SM TSRA BKN015CB FM270100 06008KT 5SM RA BKN015CB OVC070 FM270600 08005KT P6SM SCT015 BKN080 FM271500 13010KT P6SM BKN015 OVC080 TEMPO 2715/2718 3SM SHRA
Issued Valid From Valid To
Apr-26 @ 11:13 UTC
(2 hours ago)
Apr-26 @ 12:00 UTC
(an hour ago)
Apr-27 @ 18:00 UTC
(-1 days ago)
Apr-26 @ 12:00 to Apr-26 @ 15:00
TAF MMUN 261113Z 2612/2718 00000KT 5SM HZ BKN250 TX26/2620Z TN21/2612Z
Visibility Clouds Conditions
5 miles
  • Broken at 25,000' AGL
  • Haze
From Apr-26 @ 15:00 to Apr-27 @ 01:00
FM261500 13012KT P6SM BKN015 BKN080
Wind Visibility Clouds
130° at 12 knots Greater than 6 miles
  • Broken at 1,500' AGL
  • Broken at 8,000' AGL
Temporary Apr-26 @ 21:00 to Apr-27 @ 01:00
TEMPO 2621/2701 5SM TSRA BKN015CB
Visibility Clouds Conditions
5 miles
  • Broken at 1,500' AGL
  • Thunderstorm
  • Rain
From Apr-27 @ 01:00 to Apr-27 @ 06:00
FM270100 06008KT 5SM RA BKN015CB OVC070
Wind Visibility Clouds Conditions
60° at 8 knots 5 miles
  • Broken at 1,500' AGL
  • Overcast at 7,000' AGL
  • Rain
From Apr-27 @ 06:00 to Apr-27 @ 15:00
FM270600 08005KT P6SM SCT015 BKN080
Wind Visibility Clouds
80° at 5 knots Greater than 6 miles
  • Scattered at 1,500' AGL
  • Broken at 8,000' AGL
From Apr-27 @ 15:00 to Apr-27 @ 18:00
FM271500 13010KT P6SM BKN015 OVC080
Wind Visibility Clouds
130° at 10 knots Greater than 6 miles
  • Broken at 1,500' AGL
  • Overcast at 8,000' AGL
Temporary Apr-27 @ 15:00 to Apr-27 @ 18:00
TEMPO 2715/2718 3SM SHRA
Visibility Conditions
3 miles
  • Rain
TAF MMUN 261113Z 2612/2718 00000KT 5SM HZ BKN250 TX26/2620Z TN21/2612Z FM261500 13012KT P6SM BKN015 BKN080 TEMPO 2621/2701 5SM TSRA BKN015CB FM270100 06008KT 5SM RA BKN015CB OVC070 FM270600 08005KT P6SM SCT015 BKN080 FM271500 13010KT P6SM BKN015 OVC080 TEMPO 2715/2718 3SM SHRA
Issued Apr-26 @ 11:13 UTC
(2 hours ago)
Valid From Apr-26 @ 12:00 UTC
(an hour ago)
Valid To Apr-27 @ 18:00 UTC
(-1 days ago)
Apr-26 @ 12:00 - Apr-26 @ 15:00
Clouds
  • Broken at 25,000' AGL
Conditions
  • Haze
From Apr-26 @ 15:00 - Apr-27 @ 01:00
Wind Visibility
130° at 12 knots Greater than 6 miles
Clouds
  • Broken at 1,500' AGL
  • Broken at 8,000' AGL
Temporary Apr-26 @ 21:00 - Apr-27 @ 01:00
Clouds
  • Broken at 1,500' AGL
Conditions
  • Thunderstorm
  • Rain
From Apr-27 @ 01:00 - Apr-27 @ 06:00
Wind Visibility
60° at 8 knots 5 miles
Clouds
  • Broken at 1,500' AGL
  • Overcast at 7,000' AGL
Conditions
  • Rain
From Apr-27 @ 06:00 - Apr-27 @ 15:00
Wind Visibility
80° at 5 knots Greater than 6 miles
Clouds
  • Scattered at 1,500' AGL
  • Broken at 8,000' AGL
From Apr-27 @ 15:00 - Apr-27 @ 18:00
Wind Visibility
130° at 10 knots Greater than 6 miles
Clouds
  • Broken at 1,500' AGL
  • Overcast at 8,000' AGL
Temporary Apr-27 @ 15:00 - Apr-27 @ 18:00
Conditions
  • Rain